Terminal Aerodrome Forecast
Issued by NWS

Home | Current Version | Previous Version | Text Only | Print | Product List | Glossary On
Versions: 1 2 3 4 5 6 7 8 9 10 11 12 13 14 15 16 17 18 19
187
FTUS41 KILN 231720
TAFLUK
TAF
KLUK 231720Z 2318/2418 21010KT P6SM -SHRA FEW015 OVC035
      TEMPO 2318/2319 4SM SHRA BKN025
     FM232100 24010KT P6SM VCSH OVC025
     FM240400 26010KT P6SM VCSH BKN015
     FM240700 21012KT P6SM VCSH BKN015
     FM241100 24010KT P6SM BKN025
     FM241600 25012G20KT P6SM FEW030 BKN040=

USA.gov is the U.S. government's official web portal to all federal, state and local government web resources and services.